sensor_id;sensor_type;location;lat;lon;timestamp;P1;durP1;ratioP1;P2;durP2;ratioP2
39750;SDS011;37579;51.074;17.004;2023-02-03T00:02:18;4.60;;;2.05;;
39750;SDS011;37579;51.074;17.004;2023-02-03T00:04:44;3.60;;;1.58;;
39750;SDS011;37579;51.074;17.004;2023-02-03T00:07:12;4.30;;;1.55;;
39750;SDS011;37579;51.074;17.004;2023-02-03T00:09:39;4.05;;;1.55;;
39750;SDS011;37579;51.074;17.004;2023-02-03T00:12:06;3.55;;;1.48;;
39750;SDS011;37579;51.074;17.004;2023-02-03T00:14:32;3.67;;;1.83;;
39750;SDS011;37579;51.074;17.004;2023-02-03T00:16:58;3.67;;;1.98;;
39750;SDS011;37579;51.074;17.004;2023-02-03T00:19:23;3.90;;;1.67;;
39750;SDS011;37579;51.074;17.004;2023-02-03T00:21:49;4.65;;;1.80;;
39750;SDS011;37579;51.074;17.004;2023-02-03T00:24:15;4.07;;;1.77;;
39750;SDS011;37579;51.074;17.004;2023-02-03T00:26:43;4.38;;;2.00;;
39750;SDS011;37579;51.074;17.004;2023-02-03T00:29:27;2.95;;;1.65;;
39750;SDS011;37579;51.074;17.004;2023-02-03T00:31:53;3.42;;;1.77;;
39750;SDS011;37579;51.074;17.004;2023-02-03T00:34:19;4.30;;;1.75;;
39750;SDS011;37579;51.074;17.004;2023-02-03T00:36:45;3.60;;;1.63;;
39750;SDS011;37579;51.074;17.004;2023-02-03T00:39:13;4.22;;;1.75;;
39750;SDS011;37579;51.074;17.004;2023-02-03T00:41:39;4.65;;;1.77;;
39750;SDS011;37579;51.074;17.004;2023-02-03T00:44:06;3.22;;;1.85;;
39750;SDS011;37579;51.074;17.004;2023-02-03T00:46:32;3.55;;;1.90;;
39750;SDS011;37579;51.074;17.004;2023-02-03T00:49:01;2.80;;;1.58;;
39750;SDS011;37579;51.074;17.004;2023-02-03T00:51:28;2.80;;;1.60;;
39750;SDS011;37579;51.074;17.004;2023-02-03T00:53:54;3.30;;;1.85;;
39750;SDS011;37579;51.074;17.004;2023-02-03T00:56:21;4.85;;;2.10;;
39750;SDS011;37579;51.074;17.004;2023-02-03T00:58:47;3.45;;;1.98;;
39750;SDS011;37579;51.074;17.004;2023-02-03T01:01:13;4.20;;;1.98;;
39750;SDS011;37579;51.074;17.004;2023-02-03T01:03:39;3.30;;;1.70;;
39750;SDS011;37579;51.074;17.004;2023-02-03T01:06:11;2.65;;;1.30;;
39750;SDS011;37579;51.074;17.004;2023-02-03T01:08:40;3.90;;;1.50;;
39750;SDS011;37579;51.074;17.004;2023-02-03T01:11:07;3.25;;;1.58;;
39750;SDS011;37579;51.074;17.004;2023-02-03T01:13:35;3.30;;;1.63;;
39750;SDS011;37579;51.074;17.004;2023-02-03T01:16:01;3.20;;;1.70;;
39750;SDS011;37579;51.074;17.004;2023-02-03T01:18:27;3.13;;;1.73;;
39750;SDS011;37579;51.074;17.004;2023-02-03T01:20:53;3.63;;;1.92;;
39750;SDS011;37579;51.074;17.004;2023-02-03T01:23:18;3.47;;;1.70;;
39750;SDS011;37579;51.074;17.004;2023-02-03T01:25:44;3.47;;;1.70;;
39750;SDS011;37579;51.074;17.004;2023-02-03T01:28:10;2.97;;;1.50;;
39750;SDS011;37579;51.074;17.004;2023-02-03T01:30:36;3.00;;;1.63;;
39750;SDS011;37579;51.074;17.004;2023-02-03T01:33:02;3.35;;;1.92;;
39750;SDS011;37579;51.074;17.004;2023-02-03T01:35:28;3.15;;;1.70;;
39750;SDS011;37579;51.074;17.004;2023-02-03T01:37:54;4.05;;;1.75;;
39750;SDS011;37579;51.074;17.004;2023-02-03T01:40:19;2.67;;;1.70;;
39750;SDS011;37579;51.074;17.004;2023-02-03T01:42:45;3.38;;;2.10;;
39750;SDS011;37579;51.074;17.004;2023-02-03T01:45:11;2.78;;;1.63;;
39750;SDS011;37579;51.074;17.004;2023-02-03T01:47:47;3.50;;;1.95;;
39750;SDS011;37579;51.074;17.004;2023-02-03T01:50:20;2.20;;;1.33;;
39750;SDS011;37579;51.074;17.004;2023-02-03T01:52:59;3.05;;;1.75;;
39750;SDS011;37579;51.074;17.004;2023-02-03T01:55:36;2.72;;;1.40;;
39750;SDS011;37579;51.074;17.004;2023-02-03T02:00:35;2.70;;;1.50;;
39750;SDS011;37579;51.074;17.004;2023-02-03T02:03:01;3.35;;;1.65;;
39750;SDS011;37579;51.074;17.004;2023-02-03T02:05:34;3.53;;;1.58;;
39750;SDS011;37579;51.074;17.004;2023-02-03T02:08:12;3.10;;;1.80;;
39750;SDS011;37579;51.074;17.004;2023-02-03T02:10:39;3.72;;;2.00;;
39750;SDS011;37579;51.074;17.004;2023-02-03T02:13:05;3.35;;;1.80;;
39750;SDS011;37579;51.074;17.004;2023-02-03T02:15:40;3.13;;;1.50;;
39750;SDS011;37579;51.074;17.004;2023-02-03T02:18:18;2.60;;;1.67;;
39750;SDS011;37579;51.074;17.004;2023-02-03T02:23:51;2.70;;;1.50;;
39750;SDS011;37579;51.074;17.004;2023-02-03T02:32:02;3.28;;;1.60;;
39750;SDS011;37579;51.074;17.004;2023-02-03T02:35:07;2.95;;;1.88;;
39750;SDS011;37579;51.074;17.004;2023-02-03T02:43:38;3.42;;;1.80;;
39750;SDS011;37579;51.074;17.004;2023-02-03T02:46:18;2.60;;;1.70;;
39750;SDS011;37579;51.074;17.004;2023-02-03T02:52:00;3.80;;;1.60;;
39750;SDS011;37579;51.074;17.004;2023-02-03T02:54:30;3.03;;;1.60;;
39750;SDS011;37579;51.074;17.004;2023-02-03T02:56:58;2.63;;;1.45;;
39750;SDS011;37579;51.074;17.004;2023-02-03T02:59:28;2.95;;;1.42;;
39750;SDS011;37579;51.074;17.004;2023-02-03T03:01:55;2.45;;;1.60;;
39750;SDS011;37579;51.074;17.004;2023-02-03T03:04:22;3.63;;;1.80;;
39750;SDS011;37579;51.074;17.004;2023-02-03T03:09:45;2.88;;;1.42;;
39750;SDS011;37579;51.074;17.004;2023-02-03T03:12:25;2.83;;;1.65;;
39750;SDS011;37579;51.074;17.004;2023-02-03T03:14:55;3.35;;;1.85;;
39750;SDS011;37579;51.074;17.004;2023-02-03T03:17:33;3.10;;;1.60;;
39750;SDS011;37579;51.074;17.004;2023-02-03T03:20:06;3.25;;;1.73;;
39750;SDS011;37579;51.074;17.004;2023-02-03T03:22:36;2.08;;;1.30;;
39750;SDS011;37579;51.074;17.004;2023-02-03T03:25:12;2.90;;;1.77;;
39750;SDS011;37579;51.074;17.004;2023-02-03T03:27:41;2.47;;;1.63;;
39750;SDS011;37579;51.074;17.004;2023-02-03T03:30:14;2.67;;;1.52;;
39750;SDS011;37579;51.074;17.004;2023-02-03T03:32:44;2.50;;;1.40;;
39750;SDS011;37579;51.074;17.004;2023-02-03T03:35:10;2.83;;;1.60;;
39750;SDS011;37579;51.074;17.004;2023-02-03T03:37:43;3.28;;;1.63;;
39750;SDS011;37579;51.074;17.004;2023-02-03T03:40:19;2.08;;;1.35;;
39750;SDS011;37579;51.074;17.004;2023-02-03T03:48:15;3.67;;;1.80;;
39750;SDS011;37579;51.074;17.004;2023-02-03T03:50:52;2.88;;;1.70;;
39750;SDS011;37579;51.074;17.004;2023-02-03T03:53:27;3.38;;;1.80;;
39750;SDS011;37579;51.074;17.004;2023-02-03T03:55:56;3.20;;;1.80;;
39750;SDS011;37579;51.074;17.004;2023-02-03T03:58:26;2.92;;;1.77;;
39750;SDS011;37579;51.074;17.004;2023-02-03T04:00:56;2.80;;;1.60;;
39750;SDS011;37579;51.074;17.004;2023-02-03T04:03:31;3.25;;;1.80;;
39750;SDS011;37579;51.074;17.004;2023-02-03T04:06:17;2.92;;;1.65;;
39750;SDS011;37579;51.074;17.004;2023-02-03T04:08:43;2.42;;;1.70;;
39750;SDS011;37579;51.074;17.004;2023-02-03T04:11:09;3.00;;;1.85;;
39750;SDS011;37579;51.074;17.004;2023-02-03T04:13:35;2.67;;;1.60;;
39750;SDS011;37579;51.074;17.004;2023-02-03T04:16:01;2.78;;;1.67;;
39750;SDS011;37579;51.074;17.004;2023-02-03T04:18:27;2.88;;;1.67;;
39750;SDS011;37579;51.074;17.004;2023-02-03T04:20:53;2.65;;;1.33;;
39750;SDS011;37579;51.074;17.004;2023-02-03T04:23:18;2.45;;;1.40;;
39750;SDS011;37579;51.074;17.004;2023-02-03T04:25:44;2.58;;;1.70;;
39750;SDS011;37579;51.074;17.004;2023-02-03T04:28:10;2.47;;;1.55;;
39750;SDS011;37579;51.074;17.004;2023-02-03T04:30:36;2.88;;;1.90;;
39750;SDS011;37579;51.074;17.004;2023-02-03T04:33:01;2.30;;;1.40;;
39750;SDS011;37579;51.074;17.004;2023-02-03T04:35:27;3.03;;;1.67;;
39750;SDS011;37579;51.074;17.004;2023-02-03T04:37:53;2.72;;;1.70;;
39750;SDS011;37579;51.074;17.004;2023-02-03T04:40:19;2.13;;;1.50;;
39750;SDS011;37579;51.074;17.004;2023-02-03T04:42:45;2.95;;;1.70;;
39750;SDS011;37579;51.074;17.004;2023-02-03T04:45:11;2.97;;;1.52;;
39750;SDS011;37579;51.074;17.004;2023-02-03T04:47:37;2.55;;;1.52;;
39750;SDS011;37579;51.074;17.004;2023-02-03T04:50:03;2.67;;;1.52;;
39750;SDS011;37579;51.074;17.004;2023-02-03T04:52:29;2.30;;;1.50;;
39750;SDS011;37579;51.074;17.004;2023-02-03T04:54:55;2.70;;;1.30;;
39750;SDS011;37579;51.074;17.004;2023-02-03T04:57:21;4.03;;;1.70;;
39750;SDS011;37579;51.074;17.004;2023-02-03T04:59:47;2.97;;;1.52;;
39750;SDS011;37579;51.074;17.004;2023-02-03T05:02:13;2.35;;;1.58;;
39750;SDS011;37579;51.074;17.004;2023-02-03T05:04:38;2.42;;;1.38;;
39750;SDS011;37579;51.074;17.004;2023-02-03T05:07:04;2.22;;;1.50;;
39750;SDS011;37579;51.074;17.004;2023-02-03T05:09:30;2.85;;;1.60;;
39750;SDS011;37579;51.074;17.004;2023-02-03T05:11:56;2.72;;;1.52;;
39750;SDS011;37579;51.074;17.004;2023-02-03T05:14:22;2.60;;;1.58;;
39750;SDS011;37579;51.074;17.004;2023-02-03T05:16:47;1.90;;;1.40;;
39750;SDS011;37579;51.074;17.004;2023-02-03T05:19:13;3.20;;;1.48;;
39750;SDS011;37579;51.074;17.004;2023-02-03T05:21:39;2.53;;;1.42;;
39750;SDS011;37579;51.074;17.004;2023-02-03T05:24:05;1.92;;;1.42;;
39750;SDS011;37579;51.074;17.004;2023-02-03T05:26:32;2.08;;;1.40;;
39750;SDS011;37579;51.074;17.004;2023-02-03T05:28:59;2.05;;;1.23;;
39750;SDS011;37579;51.074;17.004;2023-02-03T05:31:25;2.85;;;1.70;;
39750;SDS011;37579;51.074;17.004;2023-02-03T05:33:50;2.53;;;1.42;;
39750;SDS011;37579;51.074;17.004;2023-02-03T05:36:16;2.88;;;1.55;;
39750;SDS011;37579;51.074;17.004;2023-02-03T05:38:42;2.30;;;1.27;;
39750;SDS011;37579;51.074;17.004;2023-02-03T05:41:08;2.83;;;1.58;;
39750;SDS011;37579;51.074;17.004;2023-02-03T05:43:55;2.28;;;1.30;;
39750;SDS011;37579;51.074;17.004;2023-02-03T05:46:21;1.75;;;1.38;;
39750;SDS011;37579;51.074;17.004;2023-02-03T05:48:47;2.00;;;1.40;;
39750;SDS011;37579;51.074;17.004;2023-02-03T05:51:12;2.55;;;1.45;;
39750;SDS011;37579;51.074;17.004;2023-02-03T05:53:38;2.20;;;1.30;;
39750;SDS011;37579;51.074;17.004;2023-02-03T05:56:04;2.60;;;1.50;;
39750;SDS011;37579;51.074;17.004;2023-02-03T05:58:30;2.55;;;1.60;;
39750;SDS011;37579;51.074;17.004;2023-02-03T06:00:56;1.90;;;1.30;;
39750;SDS011;37579;51.074;17.004;2023-02-03T06:03:22;2.10;;;1.38;;
39750;SDS011;37579;51.074;17.004;2023-02-03T06:05:48;2.05;;;1.27;;
39750;SDS011;37579;51.074;17.004;2023-02-03T06:08:14;2.35;;;1.65;;
39750;SDS011;37579;51.074;17.004;2023-02-03T06:10:39;2.75;;;1.20;;
39750;SDS011;37579;51.074;17.004;2023-02-03T06:13:09;2.13;;;1.38;;
39750;SDS011;37579;51.074;17.004;2023-02-03T06:15:37;2.38;;;1.35;;
39750;SDS011;37579;51.074;17.004;2023-02-03T06:18:03;2.10;;;1.35;;
39750;SDS011;37579;51.074;17.004;2023-02-03T06:20:29;1.90;;;1.20;;
39750;SDS011;37579;51.074;17.004;2023-02-03T06:22:55;1.85;;;1.10;;
39750;SDS011;37579;51.074;17.004;2023-02-03T06:25:20;2.42;;;1.20;;
39750;SDS011;37579;51.074;17.004;2023-02-03T06:27:48;2.72;;;1.10;;
39750;SDS011;37579;51.074;17.004;2023-02-03T06:30:14;2.85;;;1.58;;
39750;SDS011;37579;51.074;17.004;2023-02-03T06:32:40;2.10;;;1.50;;
39750;SDS011;37579;51.074;17.004;2023-02-03T06:35:06;4.40;;;1.40;;
39750;SDS011;37579;51.074;17.004;2023-02-03T06:37:32;3.25;;;1.25;;
39750;SDS011;37579;51.074;17.004;2023-02-03T06:39:59;1.95;;;1.13;;
39750;SDS011;37579;51.074;17.004;2023-02-03T06:42:26;1.90;;;1.13;;
39750;SDS011;37579;51.074;17.004;2023-02-03T06:44:52;4.78;;;1.40;;
39750;SDS011;37579;51.074;17.004;2023-02-03T06:47:19;2.65;;;1.40;;
39750;SDS011;37579;51.074;17.004;2023-02-03T06:49:45;4.32;;;1.38;;
39750;SDS011;37579;51.074;17.004;2023-02-03T06:52:11;2.58;;;1.48;;
39750;SDS011;37579;51.074;17.004;2023-02-03T06:54:38;3.05;;;1.52;;
39750;SDS011;37579;51.074;17.004;2023-02-03T06:57:04;3.88;;;1.35;;
39750;SDS011;37579;51.074;17.004;2023-02-03T06:59:30;6.15;;;1.80;;
39750;SDS011;37579;51.074;17.004;2023-02-03T07:01:56;3.22;;;1.15;;
39750;SDS011;37579;51.074;17.004;2023-02-03T07:04:22;3.47;;;1.50;;
39750;SDS011;37579;51.074;17.004;2023-02-03T07:06:48;2.60;;;1.33;;
39750;SDS011;37579;51.074;17.004;2023-02-03T07:09:14;4.03;;;1.38;;
39750;SDS011;37579;51.074;17.004;2023-02-03T07:11:40;2.60;;;1.30;;
39750;SDS011;37579;51.074;17.004;2023-02-03T07:14:05;2.90;;;1.60;;
39750;SDS011;37579;51.074;17.004;2023-02-03T07:16:31;2.20;;;1.38;;
39750;SDS011;37579;51.074;17.004;2023-02-03T07:18:58;2.67;;;1.15;;
39750;SDS011;37579;51.074;17.004;2023-02-03T07:21:24;2.53;;;1.10;;
39750;SDS011;37579;51.074;17.004;2023-02-03T07:23:50;3.45;;;1.67;;
39750;SDS011;37579;51.074;17.004;2023-02-03T07:26:16;2.15;;;1.30;;
39750;SDS011;37579;51.074;17.004;2023-02-03T07:28:43;3.75;;;1.60;;
39750;SDS011;37579;51.074;17.004;2023-02-03T07:31:09;3.00;;;1.27;;
39750;SDS011;37579;51.074;17.004;2023-02-03T07:33:35;2.13;;;1.13;;
39750;SDS011;37579;51.074;17.004;2023-02-03T07:36:01;2.67;;;1.77;;
39750;SDS011;37579;51.074;17.004;2023-02-03T07:38:27;3.63;;;1.40;;
39750;SDS011;37579;51.074;17.004;2023-02-03T07:40:54;2.30;;;1.30;;
39750;SDS011;37579;51.074;17.004;2023-02-03T07:43:20;2.50;;;1.30;;
39750;SDS011;37579;51.074;17.004;2023-02-03T07:45:45;5.38;;;1.85;;
39750;SDS011;37579;51.074;17.004;2023-02-03T07:48:11;2.80;;;1.48;;
39750;SDS011;37579;51.074;17.004;2023-02-03T07:50:38;3.58;;;1.50;;
39750;SDS011;37579;51.074;17.004;2023-02-03T07:53:04;3.47;;;1.33;;
39750;SDS011;37579;51.074;17.004;2023-02-03T07:55:30;2.28;;;1.27;;
39750;SDS011;37579;51.074;17.004;2023-02-03T07:57:57;3.25;;;1.17;;
39750;SDS011;37579;51.074;17.004;2023-02-03T08:00:23;3.08;;;1.30;;
39750;SDS011;37579;51.074;17.004;2023-02-03T08:02:50;4.20;;;1.70;;
39750;SDS011;37579;51.074;17.004;2023-02-03T08:05:16;2.22;;;1.20;;
39750;SDS011;37579;51.074;17.004;2023-02-03T08:07:43;2.60;;;1.58;;
39750;SDS011;37579;51.074;17.004;2023-02-03T08:10:10;2.72;;;1.10;;
39750;SDS011;37579;51.074;17.004;2023-02-03T08:12:37;3.55;;;1.17;;
39750;SDS011;37579;51.074;17.004;2023-02-03T08:15:04;3.33;;;1.33;;
39750;SDS011;37579;51.074;17.004;2023-02-03T08:17:30;4.07;;;1.30;;
39750;SDS011;37579;51.074;17.004;2023-02-03T08:19:58;3.10;;;1.23;;
39750;SDS011;37579;51.074;17.004;2023-02-03T08:22:24;1.80;;;1.13;;
39750;SDS011;37579;51.074;17.004;2023-02-03T08:24:50;2.42;;;1.20;;
39750;SDS011;37579;51.074;17.004;2023-02-03T08:27:17;2.75;;;1.33;;
39750;SDS011;37579;51.074;17.004;2023-02-03T08:29:45;2.83;;;1.25;;
39750;SDS011;37579;51.074;17.004;2023-02-03T08:32:12;2.58;;;1.05;;
39750;SDS011;37579;51.074;17.004;2023-02-03T08:34:42;5.80;;;1.23;;
39750;SDS011;37579;51.074;17.004;2023-02-03T08:37:09;2.88;;;1.50;;
39750;SDS011;37579;51.074;17.004;2023-02-03T08:39:36;2.83;;;1.60;;
39750;SDS011;37579;51.074;17.004;2023-02-03T08:42:03;3.35;;;1.80;;
39750;SDS011;37579;51.074;17.004;2023-02-03T08:44:29;3.75;;;2.08;;
39750;SDS011;37579;51.074;17.004;2023-02-03T08:46:56;4.28;;;1.60;;
39750;SDS011;37579;51.074;17.004;2023-02-03T08:49:22;5.18;;;1.80;;
39750;SDS011;37579;51.074;17.004;2023-02-03T08:51:51;7.15;;;2.35;;
39750;SDS011;37579;51.074;17.004;2023-02-03T08:54:17;6.28;;;2.00;;
39750;SDS011;37579;51.074;17.004;2023-02-03T08:56:43;4.40;;;2.28;;
39750;SDS011;37579;51.074;17.004;2023-02-03T08:59:10;3.78;;;1.98;;
39750;SDS011;37579;51.074;17.004;2023-02-03T09:01:36;3.88;;;2.15;;
39750;SDS011;37579;51.074;17.004;2023-02-03T09:04:05;3.33;;;2.10;;
39750;SDS011;37579;51.074;17.004;2023-02-03T09:06:33;3.55;;;1.88;;
39750;SDS011;37579;51.074;17.004;2023-02-03T09:09:00;4.10;;;2.00;;
39750;SDS011;37579;51.074;17.004;2023-02-03T09:11:26;3.63;;;1.90;;
39750;SDS011;37579;51.074;17.004;2023-02-03T09:13:52;6.18;;;2.45;;
39750;SDS011;37579;51.074;17.004;2023-02-03T09:16:18;3.65;;;1.50;;
39750;SDS011;37579;51.074;17.004;2023-02-03T09:18:47;4.50;;;2.40;;
39750;SDS011;37579;51.074;17.004;2023-02-03T09:21:13;5.68;;;2.15;;
39750;SDS011;37579;51.074;17.004;2023-02-03T09:23:41;3.75;;;2.00;;
39750;SDS011;37579;51.074;17.004;2023-02-03T09:26:08;5.28;;;2.17;;
39750;SDS011;37579;51.074;17.004;2023-02-03T09:28:37;3.85;;;1.90;;
39750;SDS011;37579;51.074;17.004;2023-02-03T09:31:05;3.63;;;2.30;;
39750;SDS011;37579;51.074;17.004;2023-02-03T09:33:32;4.72;;;2.30;;
39750;SDS011;37579;51.074;17.004;2023-02-03T09:35:58;2.88;;;1.92;;
39750;SDS011;37579;51.074;17.004;2023-02-03T09:38:25;3.75;;;1.60;;
39750;SDS011;37579;51.074;17.004;2023-02-03T09:40:52;5.75;;;2.20;;
39750;SDS011;37579;51.074;17.004;2023-02-03T09:43:34;5.25;;;1.95;;
39750;SDS011;37579;51.074;17.004;2023-02-03T09:46:12;3.65;;;1.90;;
39750;SDS011;37579;51.074;17.004;2023-02-03T09:48:43;4.85;;;2.10;;
39750;SDS011;37579;51.074;17.004;2023-02-03T09:51:18;3.67;;;1.92;;
39750;SDS011;37579;51.074;17.004;2023-02-03T09:56:30;5.10;;;1.83;;
39750;SDS011;37579;51.074;17.004;2023-02-03T09:58:58;4.10;;;1.90;;
39750;SDS011;37579;51.074;17.004;2023-02-03T10:01:27;4.75;;;1.67;;
39750;SDS011;37579;51.074;17.004;2023-02-03T10:07:08;7.95;;;2.13;;
39750;SDS011;37579;51.074;17.004;2023-02-03T10:17:50;15.75;;;6.57;;
39750;SDS011;37579;51.074;17.004;2023-02-03T10:23:22;11.85;;;5.88;;
39750;SDS011;37579;51.074;17.004;2023-02-03T10:25:55;13.23;;;4.80;;
39750;SDS011;37579;51.074;17.004;2023-02-03T10:28:26;12.25;;;5.28;;
39750;SDS011;37579;51.074;17.004;2023-02-03T10:30:56;12.20;;;4.85;;
39750;SDS011;37579;51.074;17.004;2023-02-03T10:33:27;11.98;;;5.15;;
39750;SDS011;37579;51.074;17.004;2023-02-03T10:35:54;12.32;;;5.70;;
39750;SDS011;37579;51.074;17.004;2023-02-03T10:38:46;11.30;;;5.05;;
39750;SDS011;37579;51.074;17.004;2023-02-03T10:41:09;12.27;;;5.03;;
39750;SDS011;37579;51.074;17.004;2023-02-03T10:43:35;11.43;;;4.38;;
39750;SDS011;37579;51.074;17.004;2023-02-03T10:46:16;13.85;;;4.85;;
39750;SDS011;37579;51.074;17.004;2023-02-03T10:48:51;13.63;;;4.35;;
39750;SDS011;37579;51.074;17.004;2023-02-03T10:51:19;10.88;;;4.40;;
39750;SDS011;37579;51.074;17.004;2023-02-03T10:53:48;12.10;;;4.60;;
39750;SDS011;37579;51.074;17.004;2023-02-03T10:56:18;10.23;;;4.45;;
39750;SDS011;37579;51.074;17.004;2023-02-03T10:58:49;9.57;;;4.35;;
39750;SDS011;37579;51.074;17.004;2023-02-03T11:01:27;8.98;;;4.38;;
39750;SDS011;37579;51.074;17.004;2023-02-03T11:04:03;9.43;;;4.72;;
39750;SDS011;37579;51.074;17.004;2023-02-03T11:06:31;10.45;;;4.18;;
39750;SDS011;37579;51.074;17.004;2023-02-03T11:08:59;10.63;;;4.05;;
39750;SDS011;37579;51.074;17.004;2023-02-03T11:11:26;11.05;;;3.45;;
39750;SDS011;37579;51.074;17.004;2023-02-03T11:16:27;7.82;;;3.80;;
39750;SDS011;37579;51.074;17.004;2023-02-03T11:24:14;9.25;;;3.85;;
39750;SDS011;37579;51.074;17.004;2023-02-03T11:29:37;9.20;;;3.63;;
39750;SDS011;37579;51.074;17.004;2023-02-03T11:32:20;8.30;;;3.63;;
39750;SDS011;37579;51.074;17.004;2023-02-03T11:34:56;9.27;;;4.22;;
39750;SDS011;37579;51.074;17.004;2023-02-03T11:37:28;9.43;;;3.67;;
39750;SDS011;37579;51.074;17.004;2023-02-03T11:40:26;9.05;;;3.72;;
39750;SDS011;37579;51.074;17.004;2023-02-03T11:48:37;8.95;;;3.25;;
39750;SDS011;37579;51.074;17.004;2023-02-03T12:15:16;8.20;;;3.00;;
39750;SDS011;37579;51.074;17.004;2023-02-03T12:23:36;6.50;;;2.78;;
39750;SDS011;37579;51.074;17.004;2023-02-03T12:26:20;7.28;;;3.22;;
39750;SDS011;37579;51.074;17.004;2023-02-03T12:28:57;8.93;;;3.10;;
39750;SDS011;37579;51.074;17.004;2023-02-03T12:31:37;8.45;;;2.92;;
39750;SDS011;37579;51.074;17.004;2023-02-03T12:34:24;5.22;;;2.88;;
39750;SDS011;37579;51.074;17.004;2023-02-03T12:36:57;7.10;;;2.78;;
39750;SDS011;37579;51.074;17.004;2023-02-03T12:39:44;6.50;;;2.55;;
39750;SDS011;37579;51.074;17.004;2023-02-03T12:42:24;5.72;;;2.65;;
39750;SDS011;37579;51.074;17.004;2023-02-03T12:45:30;6.68;;;2.80;;
39750;SDS011;37579;51.074;17.004;2023-02-03T12:50:36;5.18;;;2.53;;
39750;SDS011;37579;51.074;17.004;2023-02-03T12:53:22;5.60;;;2.13;;
39750;SDS011;37579;51.074;17.004;2023-02-03T12:55:57;7.10;;;2.92;;
39750;SDS011;37579;51.074;17.004;2023-02-03T12:59:29;6.78;;;3.05;;
39750;SDS011;37579;51.074;17.004;2023-02-03T13:01:31;6.43;;;3.00;;
39750;SDS011;37579;51.074;17.004;2023-02-03T13:07:18;5.60;;;2.70;;
39750;SDS011;37579;51.074;17.004;2023-02-03T13:09:58;6.22;;;2.20;;
39750;SDS011;37579;51.074;17.004;2023-02-03T13:12:44;5.18;;;2.20;;
39750;SDS011;37579;51.074;17.004;2023-02-03T13:15:23;4.97;;;2.45;;
39750;SDS011;37579;51.074;17.004;2023-02-03T13:20:35;6.15;;;2.50;;
39750;SDS011;37579;51.074;17.004;2023-02-03T13:23:05;5.18;;;2.22;;
39750;SDS011;37579;51.074;17.004;2023-02-03T13:25:49;5.97;;;2.20;;
39750;SDS011;37579;51.074;17.004;2023-02-03T13:33:49;6.70;;;2.50;;
39750;SDS011;37579;51.074;17.004;2023-02-03T13:44:33;6.55;;;2.08;;
39750;SDS011;37579;51.074;17.004;2023-02-03T13:47:01;4.70;;;2.10;;
39750;SDS011;37579;51.074;17.004;2023-02-03T13:49:32;3.42;;;1.70;;
39750;SDS011;37579;51.074;17.004;2023-02-03T13:51:59;4.65;;;1.90;;
39750;SDS011;37579;51.074;17.004;2023-02-03T13:54:33;6.32;;;1.95;;
39750;SDS011;37579;51.074;17.004;2023-02-03T13:57:03;3.65;;;1.98;;
39750;SDS011;37579;51.074;17.004;2023-02-03T14:07:30;6.60;;;1.70;;
39750;SDS011;37579;51.074;17.004;2023-02-03T14:15:28;2.75;;;1.35;;
39750;SDS011;37579;51.074;17.004;2023-02-03T14:22:53;3.60;;;1.77;;
39750;SDS011;37579;51.074;17.004;2023-02-03T14:25:23;3.92;;;1.35;;
39750;SDS011;37579;51.074;17.004;2023-02-03T14:28:00;4.72;;;1.58;;
39750;SDS011;37579;51.074;17.004;2023-02-03T14:30:33;4.13;;;1.50;;
39750;SDS011;37579;51.074;17.004;2023-02-03T14:36:38;3.20;;;1.20;;
39750;SDS011;37579;51.074;17.004;2023-02-03T14:53:17;3.30;;;1.13;;
39750;SDS011;37579;51.074;17.004;2023-02-03T14:58:32;2.67;;;1.17;;
39750;SDS011;37579;51.074;17.004;2023-02-03T15:06:39;5.93;;;1.77;;
39750;SDS011;37579;51.074;17.004;2023-02-03T15:09:44;4.50;;;1.38;;
39750;SDS011;37579;51.074;17.004;2023-02-03T15:12:23;1.55;;;0.90;;
39750;SDS011;37579;51.074;17.004;2023-02-03T15:14:51;2.42;;;1.30;;
39750;SDS011;37579;51.074;17.004;2023-02-03T15:19:48;1.48;;;0.73;;
39750;SDS011;37579;51.074;17.004;2023-02-03T15:22:21;2.08;;;0.98;;
39750;SDS011;37579;51.074;17.004;2023-02-03T15:24:51;1.40;;;0.93;;
39750;SDS011;37579;51.074;17.004;2023-02-03T15:27:24;2.72;;;1.17;;
39750;SDS011;37579;51.074;17.004;2023-02-03T15:29:52;3.15;;;1.20;;
39750;SDS011;37579;51.074;17.004;2023-02-03T15:32:32;3.70;;;1.27;;
39750;SDS011;37579;51.074;17.004;2023-02-03T15:35:00;2.63;;;1.20;;
39750;SDS011;37579;51.074;17.004;2023-02-03T15:37:33;3.22;;;1.40;;
39750;SDS011;37579;51.074;17.004;2023-02-03T15:40:21;2.63;;;1.05;;
39750;SDS011;37579;51.074;17.004;2023-02-03T15:42:55;2.85;;;1.10;;
39750;SDS011;37579;51.074;17.004;2023-02-03T15:45:27;1.73;;;1.08;;
39750;SDS011;37579;51.074;17.004;2023-02-03T15:47:56;2.75;;;1.08;;
39750;SDS011;37579;51.074;17.004;2023-02-03T15:50:32;1.70;;;0.90;;
39750;SDS011;37579;51.074;17.004;2023-02-03T15:53:07;3.20;;;1.10;;
39750;SDS011;37579;51.074;17.004;2023-02-03T15:55:40;2.72;;;1.40;;
39750;SDS011;37579;51.074;17.004;2023-02-03T15:58:19;2.45;;;1.10;;
39750;SDS011;37579;51.074;17.004;2023-02-03T16:00:55;2.40;;;1.10;;
39750;SDS011;37579;51.074;17.004;2023-02-03T16:03:32;3.38;;;1.25;;
39750;SDS011;37579;51.074;17.004;2023-02-03T16:06:33;2.90;;;1.23;;
39750;SDS011;37579;51.074;17.004;2023-02-03T16:08:55;2.38;;;1.40;;
39750;SDS011;37579;51.074;17.004;2023-02-03T16:13:56;3.35;;;1.23;;
39750;SDS011;37579;51.074;17.004;2023-02-03T16:19:03;3.60;;;1.13;;
39750;SDS011;37579;51.074;17.004;2023-02-03T16:21:51;3.50;;;1.30;;
39750;SDS011;37579;51.074;17.004;2023-02-03T16:29:44;13.57;;;5.53;;
39750;SDS011;37579;51.074;17.004;2023-02-03T16:32:28;16.23;;;7.82;;
39750;SDS011;37579;51.074;17.004;2023-02-03T16:35:13;21.35;;;9.93;;
39750;SDS011;37579;51.074;17.004;2023-02-03T16:38:04;19.65;;;10.82;;
39750;SDS011;37579;51.074;17.004;2023-02-03T16:40:54;20.45;;;11.40;;
39750;SDS011;37579;51.074;17.004;2023-02-03T16:43:39;26.23;;;12.95;;
39750;SDS011;37579;51.074;17.004;2023-02-03T16:46:23;25.50;;;13.43;;
39750;SDS011;37579;51.074;17.004;2023-02-03T16:49:08;27.65;;;14.55;;
39750;SDS011;37579;51.074;17.004;2023-02-03T16:51:52;29.55;;;14.45;;
39750;SDS011;37579;51.074;17.004;2023-02-03T16:54:18;26.05;;;14.60;;
39750;SDS011;37579;51.074;17.004;2023-02-03T16:56:43;28.17;;;15.65;;
39750;SDS011;37579;51.074;17.004;2023-02-03T16:59:09;30.50;;;15.25;;
39750;SDS011;37579;51.074;17.004;2023-02-03T17:01:36;25.05;;;13.48;;
39750;SDS011;37579;51.074;17.004;2023-02-03T17:04:02;26.60;;;14.18;;
39750;SDS011;37579;51.074;17.004;2023-02-03T17:06:28;27.75;;;13.40;;
39750;SDS011;37579;51.074;17.004;2023-02-03T17:08:54;24.38;;;13.07;;
39750;SDS011;37579;51.074;17.004;2023-02-03T17:11:21;26.40;;;12.73;;
39750;SDS011;37579;51.074;17.004;2023-02-03T17:13:47;23.35;;;12.50;;
39750;SDS011;37579;51.074;17.004;2023-02-03T17:16:21;24.63;;;13.43;;
39750;SDS011;37579;51.074;17.004;2023-02-03T17:18:49;25.27;;;13.15;;
39750;SDS011;37579;51.074;17.004;2023-02-03T17:21:16;23.40;;;12.35;;
39750;SDS011;37579;51.074;17.004;2023-02-03T17:23:52;21.70;;;10.88;;
39750;SDS011;37579;51.074;17.004;2023-02-03T17:26:18;20.80;;;11.27;;
39750;SDS011;37579;51.074;17.004;2023-02-03T17:28:44;21.08;;;12.15;;
39750;SDS011;37579;51.074;17.004;2023-02-03T17:31:11;19.40;;;11.35;;
39750;SDS011;37579;51.074;17.004;2023-02-03T17:33:39;22.80;;;12.00;;
39750;SDS011;37579;51.074;17.004;2023-02-03T17:36:07;19.27;;;11.00;;
39750;SDS011;37579;51.074;17.004;2023-02-03T17:38:37;19.50;;;10.60;;
39750;SDS011;37579;51.074;17.004;2023-02-03T17:41:12;22.25;;;11.07;;